Main page
METAR-TAF:

METAR-TAF

Airports :

Boston, Massachusetts, United States

Logan International Airport

latitude: 42-21-38N, longitude: 071-00-38W, elevation: 6 m

Current weather observation

The report was made 23 minutes ago, at 13:54 UTC
Wind 7 kt from the West
Temperature 5°C
Humidity 60%
Pressure 1020 hPa
Visibility: 16.1 km
Scattered clouds at a height of 15000 ft
Broken clouds at a height of 22000 ft

METAR: KBOS 211354Z 26007KT 10SM SCT150 BKN220 05/M02 A3012 RMK AO2 SLP200 T00501017

Time: 09:17 (14:17 UTC)

Forecast

The report was made 2 hours and 57 minutes ago, at 11:20 UTC
Forecast valid from 21 at 12 UTC to 22 at 18 UTC
Wind 6 kt from the West
Visibility: 10 km
Broken clouds at a height of 25000 ft
From 21 at 2100 UTC
Wind kt from the North
Visibility: 10 km
Scattered clouds at a height of 15000 ft
From 22 at 1500 UTC
Wind 4 kt from the East/Northeast
Visibility: 10 km
Broken clouds at a height of 1500 ft

TAF: KBOS 211120Z 2112/2218 28006KT P6SM BKN250 FM212100 00000KT P6SM SCT150 FM221500 06004KT P6SM BKN015

Weather observations and forecasts of more than 4000 airports (METAR and TAF reports).

The available stations are represented by yellow and red dots on the map.

Hover mouse over dot to see the name of the station.

Then click to see weather observations and forecasts.

To change the map : click on the green buttons with a black cross to zoom in, on the green button with a dash to zoom out, or on the green arrows for adjacent maps.


METAR-TAF: